Deer Plain, Illinois
Current Conditions -  °F | °C
As of 1:54 AM on Friday 31 Oct 2014 (Local Time) from KSET Reporting Station
Clear Clear  
Wind Chill: 43°   Ceiling: Unl
Heat Index: 47°   Visibility: 9mi
Dew Point: 44°   Wind: 8mph
Humidity: 90%   Direction: 350°N
Pressure: 30.07"   Gusts: NA
Location:  38.9748°N, 90.5955°W
Report Text: KSET 310654Z AUTO 35007KT 9SM CLR 08/07 A3007 RMK AO2 SLP183 T00830067
Loading
Personal Weather Stations






























Interactive Weather Map
Tropical Storm Tracking
New forecast layout! Learn more

10-Day Weather Forecast

Advertisements
Track Severe Weather on mobile